UTAV

Turkmenabat Airport

Türkmenabat, Turkmenistan
TAF UTAV 230430Z 2305/2406 03016KT 5000 SCT050 SCT100 530005 TEMPO 2305/2308 09016G26KT 2500 DRDU TEMPO 2308/2314 16020G30KT 0500+DS VV003 570005
Issued Valid From Valid To
Apr-23 @ 04:30 UTC
(5 hours ago)
Apr-23 @ 05:00 UTC
(5 hours ago)
Apr-24 @ 06:00 UTC
(in 20 hours)
Apr-23 @ 05:00 to Apr-24 @ 06:00
TAF UTAV 230430Z 2305/2406 03016KT 5000 SCT050 SCT100 530005
Wind Visibility Clouds Turbulence
30° at 16 knots 5,005 meters
  • Scattered at 5,000' AGL
  • Scattered at 10,000' AGL
Frequent moderate clear air turbulence expected at the surface extending to 5,000' AGL
Expired Click to View Apr-23 @ 05:00 to Apr-23 @ 08:00
TEMPO 2305/2308 09016G26KT 2500 DRDU
Wind Visibility Conditions
90° at 16 knots
 Gusting to 26 knots
2,494 meters
  • Low drifting
  • Dust
Temporary Apr-23 @ 08:00 to Apr-23 @ 14:00
TEMPO 2308/2314 16020G30KT 0500+DS VV003 570005
Wind Clouds Conditions Turbulence
160° at 20 knots
 Gusting to 30 knots
  • Vertical visibility at 300' AGL
  • Heavy Duststorm
Frequent severe clear air turbulence expected at the surface extending to 5,000' AGL
TAF UTAV 230430Z 2305/2406 03016KT 5000 SCT050 SCT100 530005 TEMPO 2305/2308 09016G26KT 2500 DRDU TEMPO 2308/2314 16020G30KT 0500+DS VV003 570005
Issued Apr-23 @ 04:30 UTC
(5 hours ago)
Valid From Apr-23 @ 05:00 UTC
(5 hours ago)
Valid To Apr-24 @ 06:00 UTC
(in 20 hours)
Apr-23 @ 05:00 - Apr-24 @ 06:00
Wind Visibility
30° at 16 knots 5,005 meters
Clouds
  • Scattered at 5,000' AGL
  • Scattered at 10,000' AGL
Apr-23 @ 05:00 - Apr-23 @ 08:00
Wind Visibility
90° at 16 knots
 Gusting to 26 knots
2,494 meters
Conditions
  • Low drifting
  • Dust
Temporary Apr-23 @ 08:00 - Apr-23 @ 14:00
Wind
160° at 20 knots
 Gusting to 30 knots
Clouds
  • Vertical visibility at 300' AGL
Conditions
  • Heavy Duststorm